Time;durP1;ratioP1;P1;durP2;ratioP2;P2;SDS_P1;SDS_P2;PMS_P1;PMS_P2;Temp;Humidity;BMP_temperature;BMP_pressure;BME280_temperature;BME280_humidity;BME280_pressure;Samples;Min_cycle;Max_cycle;Signal;HPM_P1;HPM_P2
2023/03/24 00:01:10;;;;;;;;;;;;;;;;;;5033749;28;20459;-65
2023/03/24 00:03:36;;;;;;;;;;;;;;;;;;5051633;28;20011;-65
2023/03/24 00:06:02;;;;;;;;;;;;;;;;;;5063847;28;19962;-65
2023/03/24 00:08:29;;;;;;;;;;;;;;;;;;5061238;28;19936;-66
2023/03/24 00:10:55;;;;;;;;;;;;;;;;;;5083108;22;19928;-58
2023/03/24 00:13:21;;;;;;;;;;;;;;;;;;5071749;28;20076;-60
2023/03/24 00:15:47;;;;;;;;;;;;;;;;;;5072533;28;19927;-60
2023/03/24 00:18:13;;;;;;;;;;;;;;;;;;5072988;28;19983;-60
2023/03/24 00:20:41;;;;;;;;;;;;;;;;;;5054988;28;19994;-60
2023/03/24 00:23:06;;;;;;;;;;;;;;;;;;5072650;28;19904;-60
2023/03/24 00:25:35;;;;;;;;;;;;;;;;;;5072949;28;19936;-60
2023/03/24 00:28:01;;;;;;;;;;;;;;;;;;5073176;28;19908;-60
2023/03/24 00:30:27;;;;;;;;;;;;;;;;;;5073465;28;19911;-58
2023/03/24 00:32:53;;;;;;;;;;;;;;;;;;5055640;28;19904;-58
2023/03/24 00:35:19;;;;;;;;;;;;;;;;;;5073311;28;19923;-58
2023/03/24 00:37:45;;;;;;;;;;;;;;;;;;5073449;28;19915;-58
2023/03/24 00:40:11;;;;;;;;;;;;;;;;;;5073319;28;19908;-58
2023/03/24 00:42:37;;;;;;;;;;;;;;;;;;5057257;28;19955;-59
2023/03/24 00:45:03;;;;;;;;;;;;;;;;;;5072867;28;19943;-58
2023/03/24 00:47:29;;;;;;;;;;;;;;;;;;5048090;28;19911;-59
2023/03/24 00:49:56;;;;;;;;;;;;;;;;;;5052951;28;19999;-59
2023/03/24 00:52:23;;;;;;;;;;;;;;;;;;5035297;28;19904;-56
2023/03/24 00:54:49;;;;;;;;;;;;;;;;;;5052862;28;20042;-59
2023/03/24 00:57:21;;;;;;;;;;;;;;;;;;5053212;28;19908;-55
2023/03/24 00:59:47;;;;;;;;;;;;;;;;;;5052992;28;19932;-58
2023/03/24 01:02:13;;;;;;;;;;;;;;;;;;5052946;28;19905;-56
2023/03/24 01:04:39;;;;;;;;;;;;;;;;;;5052879;28;19908;-59
2023/03/24 01:07:06;;;;;;;;;;;;;;;;;;5035205;28;20368;-59
2023/03/24 01:09:32;;;;;;;;;;;;;;;;;;5034544;28;19908;-58
2023/03/24 01:11:58;;;;;;;;;;;;;;;;;;5052251;28;20265;-58
2023/03/24 01:14:24;;;;;;;;;;;;;;;;;;5034477;28;19911;-58
2023/03/24 01:16:51;;;;;;;;;;;;;;;;;;5034648;28;19905;-58
2023/03/24 01:19:17;;;;;;;;;;;;;;;;;;5034628;28;20274;-59
2023/03/24 01:21:43;;;;;;;;;;;;;;;;;;5052512;28;19911;-54
2023/03/24 01:24:09;;;;;;;;;;;;;;;;;;5052229;28;19912;-58
2023/03/24 01:26:35;;;;;;;;;;;;;;;;;;5034574;28;20375;-57
2023/03/24 01:29:01;;;;;;;;;;;;;;;;;;5052439;28;19962;-59
2023/03/24 01:31:27;;;;;;;;;;;;;;;;;;5034627;28;20304;-60
2023/03/24 01:33:53;;;;;;;;;;;;;;;;;;5052172;28;19986;-59
2023/03/24 01:36:19;;;;;;;;;;;;;;;;;;5052362;28;19905;-57
2023/03/24 01:38:44;;;;;;;;;;;;;;;;;;5034253;28;19962;-58
2023/03/24 01:41:10;;;;;;;;;;;;;;;;;;5052236;28;20372;-55
2023/03/24 01:43:36;;;;;;;;;;;;;;;;;;5051992;28;19909;-54
2023/03/24 01:46:02;;;;;;;;;;;;;;;;;;5050345;28;19939;-56
2023/03/24 01:48:28;;;;;;;;;;;;;;;;;;5091806;28;19911;-56
2023/03/24 01:50:54;;;;;;;;;;;;;;;;;;4732145;28;10000058;-56
2023/03/24 01:53:20;;;;;;;;;;;;;;;;;;5035954;28;19909;-56
2023/03/24 01:55:46;;;;;;;;;;;;;;;;;;5066592;28;19908;-54
2023/03/24 01:58:12;;;;;;;;;;;;;;;;;;5068606;28;19912;-53
2023/03/24 02:00:38;;;;;;;;;;;;;;;;;;5068357;28;19963;-57
2023/03/24 02:03:05;;;;;;;;;;;;;;;;;;5068452;28;20667;-58
2023/03/24 02:05:31;;;;;;;;;;;;;;;;;;5050660;28;19909;-57
2023/03/24 02:07:57;;;;;;;;;;;;;;;;;;5069142;28;20371;-54
2023/03/24 02:10:23;;;;;;;;;;;;;;;;;;5068636;28;19922;-57
2023/03/24 02:12:49;;;;;;;;;;;;;;;;;;5069313;28;20185;-59
2023/03/24 02:15:14;;;;;;;;;;;;;;;;;;5069310;28;19909;-56
2023/03/24 02:17:41;;;;;;;;;;;;;;;;;;5051380;28;19904;-59
2023/03/24 02:20:10;;;;;;;;;;;;;;;;;;5066334;28;19991;-57
2023/03/24 02:22:36;;;;;;;;;;;;;;;;;;5061471;28;20003;-59
2023/03/24 02:25:02;;;;;;;;;;;;;;;;;;5039120;28;20019;-57
2023/03/24 02:27:28;;;;;;;;;;;;;;;;;;5052996;28;19904;-59
2023/03/24 02:29:54;;;;;;;;;;;;;;;;;;5072973;28;19913;-58
2023/03/24 02:32:20;;;;;;;;;;;;;;;;;;5073319;28;19916;-57
2023/03/24 02:34:46;;;;;;;;;;;;;;;;;;5072843;28;19909;-58
2023/03/24 02:37:12;;;;;;;;;;;;;;;;;;5045478;28;20395;-56
2023/03/24 02:39:38;;;;;;;;;;;;;;;;;;5052952;28;19916;-57
2023/03/24 02:42:04;;;;;;;;;;;;;;;;;;5035300;28;20000;-59
2023/03/24 02:44:30;;;;;;;;;;;;;;;;;;5052853;28;19905;-58
2023/03/24 02:46:56;;;;;;;;;;;;;;;;;;5053279;28;20058;-59
2023/03/24 02:49:22;;;;;;;;;;;;;;;;;;5053043;28;19905;-60
2023/03/24 02:51:48;;;;;;;;;;;;;;;;;;5052999;28;19908;-59
2023/03/24 02:54:14;;;;;;;;;;;;;;;;;;5062144;28;19908;-58
2023/03/24 02:56:40;;;;;;;;;;;;;;;;;;5073748;28;19905;-55
2023/03/24 02:59:05;;;;;;;;;;;;;;;;;;5055683;28;20364;-58
2023/03/24 03:01:31;;;;;;;;;;;;;;;;;;5057089;28;19908;-59
2023/03/24 03:03:57;;;;;;;;;;;;;;;;;;5074884;28;19911;-57
2023/03/24 03:06:23;;;;;;;;;;;;;;;;;;5057136;28;20276;-58
2023/03/24 03:08:49;;;;;;;;;;;;;;;;;;5074950;28;19904;-57
2023/03/24 03:11:15;;;;;;;;;;;;;;;;;;5074879;28;19919;-59
2023/03/24 03:13:41;;;;;;;;;;;;;;;;;;5074947;28;19904;-58
2023/03/24 03:16:07;;;;;;;;;;;;;;;;;;5075022;28;19927;-59
2023/03/24 03:18:33;;;;;;;;;;;;;;;;;;5074822;28;19966;-56
2023/03/24 03:20:59;;;;;;;;;;;;;;;;;;5074569;28;19943;-59
2023/03/24 03:23:25;;;;;;;;;;;;;;;;;;5074540;28;19931;-59
2023/03/24 03:25:51;;;;;;;;;;;;;;;;;;5075278;28;19904;-57
2023/03/24 03:28:19;;;;;;;;;;;;;;;;;;5075964;28;19904;-62
2023/03/24 03:30:45;;;;;;;;;;;;;;;;;;5075066;28;19904;-57
2023/03/24 03:33:11;;;;;;;;;;;;;;;;;;5074468;28;19900;-59
2023/03/24 03:35:37;;;;;;;;;;;;;;;;;;5073830;28;19919;-58
2023/03/24 03:38:03;;;;;;;;;;;;;;;;;;5074541;28;19908;-58
2023/03/24 03:40:28;;;;;;;;;;;;;;;;;;5074533;28;19935;-59
2023/03/24 03:42:54;;;;;;;;;;;;;;;;;;5074572;28;19904;-57
2023/03/24 03:45:20;;;;;;;;;;;;;;;;;;5074123;28;19904;-59
2023/03/24 03:47:46;;;;;;;;;;;;;;;;;;5074506;28;19905;-57
2023/03/24 03:50:12;;;;;;;;;;;;;;;;;;5056435;28;20318;-60
2023/03/24 03:52:38;;;;;;;;;;;;;;;;;;5074350;28;19904;-57
2023/03/24 03:55:04;;;;;;;;;;;;;;;;;;5056082;28;19919;-60
2023/03/24 03:57:30;;;;;;;;;;;;;;;;;;5074206;28;19904;-56
2023/03/24 03:59:57;;;;;;;;;;;;;;;;;;5074129;28;19909;-56
2023/03/24 04:02:25;;;;;;;;;;;;;;;;;;5051983;28;19966;-57
2023/03/24 04:04:51;;;;;;;;;;;;;;;;;;5072483;28;19904;-59
2023/03/24 04:07:17;;;;;;;;;;;;;;;;;;5074017;28;20042;-57
2023/03/24 04:09:43;;;;;;;;;;;;;;;;;;5073385;28;19908;-59
2023/03/24 04:12:09;;;;;;;;;;;;;;;;;;5074110;28;19905;-58
2023/03/24 04:14:36;;;;;;;;;;;;;;;;;;5073727;28;19905;-60
2023/03/24 04:17:02;;;;;;;;;;;;;;;;;;5073971;28;19943;-57
2023/03/24 04:19:28;;;;;;;;;;;;;;;;;;5073661;28;19961;-59
2023/03/24 04:21:54;;;;;;;;;;;;;;;;;;5056189;28;19999;-57
2023/03/24 04:24:26;;;;;;;;;;;;;;;;;;5073508;28;20369;-57
2023/03/24 04:26:53;;;;;;;;;;;;;;;;;;5074614;28;19904;-56
2023/03/24 04:29:19;;;;;;;;;;;;;;;;;;5073548;28;19911;-59
2023/03/24 04:31:48;;;;;;;;;;;;;;;;;;5055612;28;19912;-57
2023/03/24 04:34:14;;;;;;;;;;;;;;;;;;5073274;28;19919;-58
2023/03/24 04:36:43;;;;;;;;;;;;;;;;;;5073671;28;20328;-60
2023/03/24 04:39:09;;;;;;;;;;;;;;;;;;5055420;28;19923;-58
2023/03/24 04:41:36;;;;;;;;;;;;;;;;;;5073549;28;19908;-58
2023/03/24 04:44:03;;;;;;;;;;;;;;;;;;5073113;28;19986;-56
2023/03/24 04:46:29;;;;;;;;;;;;;;;;;;5072983;28;19911;-58
2023/03/24 04:48:55;;;;;;;;;;;;;;;;;;5072651;28;19908;-58
2023/03/24 04:51:21;;;;;;;;;;;;;;;;;;5073217;28;19905;-57
2023/03/24 04:53:47;;;;;;;;;;;;;;;;;;5072923;28;19940;-57
2023/03/24 04:56:13;;;;;;;;;;;;;;;;;;5073190;28;19943;-57
2023/03/24 04:58:39;;;;;;;;;;;;;;;;;;5073830;28;19909;-59
2023/03/24 05:01:07;;;;;;;;;;;;;;;;;;5055968;28;20012;-57
2023/03/24 05:03:36;;;;;;;;;;;;;;;;;;5072773;28;20414;-58
2023/03/24 05:06:04;;;;;;;;;;;;;;;;;;5073323;28;20388;-55
2023/03/24 05:08:30;;;;;;;;;;;;;;;;;;5075023;28;19908;-56
2023/03/24 05:10:56;;;;;;;;;;;;;;;;;;5074088;28;19919;-58
2023/03/24 05:13:22;;;;;;;;;;;;;;;;;;5074096;28;19904;-56
2023/03/24 05:15:48;;;;;;;;;;;;;;;;;;5077007;28;19904;-58
2023/03/24 05:18:14;;;;;;;;;;;;;;;;;;5073508;28;19900;-57
2023/03/24 05:20:40;;;;;;;;;;;;;;;;;;5072744;28;19912;-56
2023/03/24 05:23:06;;;;;;;;;;;;;;;;;;5072659;28;20265;-59
2023/03/24 05:25:32;;;;;;;;;;;;;;;;;;5054715;28;19998;-56
2023/03/24 05:27:58;;;;;;;;;;;;;;;;;;5054456;28;19911;-56
2023/03/24 05:30:24;;;;;;;;;;;;;;;;;;5072462;28;19927;-56
2023/03/24 05:32:50;;;;;;;;;;;;;;;;;;5072915;28;20403;-54
2023/03/24 05:35:16;;;;;;;;;;;;;;;;;;5054326;28;19930;-56
2023/03/24 05:37:42;;;;;;;;;;;;;;;;;;5054514;28;19911;-58
2023/03/24 05:40:08;;;;;;;;;;;;;;;;;;5072064;28;19915;-58
2023/03/24 05:42:34;;;;;;;;;;;;;;;;;;5054346;28;19958;-58
2023/03/24 05:45:00;;;;;;;;;;;;;;;;;;5053835;28;19990;-57
2023/03/24 05:47:26;;;;;;;;;;;;;;;;;;5072186;28;19908;-57
2023/03/24 05:49:51;;;;;;;;;;;;;;;;;;5072163;28;20273;-58
2023/03/24 05:52:19;;;;;;;;;;;;;;;;;;5071991;28;20007;-56
2023/03/24 05:54:45;;;;;;;;;;;;;;;;;;5071628;28;19908;-57
2023/03/24 05:57:11;;;;;;;;;;;;;;;;;;5072063;28;19905;-59
2023/03/24 05:59:37;;;;;;;;;;;;;;;;;;5067637;28;19954;-57
2023/03/24 06:02:03;;;;;;;;;;;;;;;;;;5071250;28;19946;-57
2023/03/24 06:04:29;;;;;;;;;;;;;;;;;;5053409;28;19965;-58
2023/03/24 06:06:57;;;;;;;;;;;;;;;;;;5053636;28;19908;-60
2023/03/24 06:09:23;;;;;;;;;;;;;;;;;;5056190;28;19905;-56
2023/03/24 06:11:49;;;;;;;;;;;;;;;;;;5123076;22;19920;-67
2023/03/24 06:14:15;;;;;;;;;;;;;;;;;;5110301;28;19904;-66
2023/03/24 06:16:41;;;;;;;;;;;;;;;;;;5092596;28;20121;-67
2023/03/24 06:19:07;;;;;;;;;;;;;;;;;;5111010;28;19911;-66
2023/03/24 06:21:33;;;;;;;;;;;;;;;;;;5077916;28;20368;-67
2023/03/24 06:23:59;;;;;;;;;;;;;;;;;;5090321;28;20012;-67
2023/03/24 06:26:25;;;;;;;;;;;;;;;;;;5090301;28;20280;-64
2023/03/24 06:28:50;;;;;;;;;;;;;;;;;;5090275;28;20336;-66
2023/03/24 06:31:18;;;;;;;;;;;;;;;;;;5072054;28;19948;-66
2023/03/24 06:33:45;;;;;;;;;;;;;;;;;;5090302;28;19907;-68
2023/03/24 06:36:11;;;;;;;;;;;;;;;;;;5090315;28;19939;-66
2023/03/24 06:38:37;;;;;;;;;;;;;;;;;;5090765;28;19931;-67
2023/03/24 06:41:03;;;;;;;;;;;;;;;;;;5087968;28;19904;-66
2023/03/24 06:43:29;;;;;;;;;;;;;;;;;;5081454;28;19904;-66
2023/03/24 06:45:55;;;;;;;;;;;;;;;;;;5090367;28;20381;-65
2023/03/24 06:48:20;;;;;;;;;;;;;;;;;;5091062;28;20035;-65
2023/03/24 06:50:46;;;;;;;;;;;;;;;;;;5090416;28;19910;-65
2023/03/24 06:53:12;;;;;;;;;;;;;;;;;;5090287;28;19904;-66
2023/03/24 06:55:38;;;;;;;;;;;;;;;;;;5090684;28;19904;-67
2023/03/24 06:58:04;;;;;;;;;;;;;;;;;;5090258;28;19939;-66
2023/03/24 07:00:30;;;;;;;;;;;;;;;;;;5090131;28;20295;-64
2023/03/24 07:02:56;;;;;;;;;;;;;;;;;;5090493;28;19904;-67
2023/03/24 07:05:22;;;;;;;;;;;;;;;;;;5090436;28;19907;-66
2023/03/24 07:07:48;;;;;;;;;;;;;;;;;;5086326;28;20331;-65
2023/03/24 07:10:14;;;;;;;;;;;;;;;;;;5089007;28;20344;-66
2023/03/24 07:12:40;;;;;;;;;;;;;;;;;;5094002;28;19947;-67
2023/03/24 07:15:07;;;;;;;;;;;;;;;;;;5093928;28;19904;-66
2023/03/24 07:17:33;;;;;;;;;;;;;;;;;;5094138;28;20323;-65
2023/03/24 07:19:59;;;;;;;;;;;;;;;;;;5094001;28;20015;-65
2023/03/24 07:22:24;;;;;;;;;;;;;;;;;;5071861;28;20437;-66
2023/03/24 07:24:51;;;;;;;;;;;;;;;;;;5092203;28;19908;-66
2023/03/24 07:27:17;;;;;;;;;;;;;;;;;;5092860;28;19904;-66
2023/03/24 07:29:42;;;;;;;;;;;;;;;;;;5094204;28;19904;-66
2023/03/24 07:32:08;;;;;;;;;;;;;;;;;;5093917;28;19911;-66
2023/03/24 07:34:35;;;;;;;;;;;;;;;;;;5093624;28;19911;-67
2023/03/24 07:37:01;;;;;;;;;;;;;;;;;;5093851;28;19904;-65
2023/03/24 07:39:27;;;;;;;;;;;;;;;;;;5075191;28;19935;-66
2023/03/24 07:41:53;;;;;;;;;;;;;;;;;;5093240;28;20314;-62
2023/03/24 07:44:19;;;;;;;;;;;;;;;;;;5074812;28;19904;-66
2023/03/24 07:46:45;;;;;;;;;;;;;;;;;;5093222;28;19904;-66
2023/03/24 07:49:11;;;;;;;;;;;;;;;;;;5093257;28;19904;-66
2023/03/24 07:51:37;;;;;;;;;;;;;;;;;;5074918;28;19904;-66
2023/03/24 07:54:02;;;;;;;;;;;;;;;;;;5091690;28;20594;-65
2023/03/24 07:56:28;;;;;;;;;;;;;;;;;;5093749;28;19904;-64
2023/03/24 07:58:56;;;;;;;;;;;;;;;;;;5092010;28;19940;-66
2023/03/24 08:01:22;;;;;;;;;;;;;;;;;;5092847;28;20002;-67
2023/03/24 08:03:53;;;;;;;;;;;;;;;;;;5086744;28;19908;-66
2023/03/24 08:06:18;;;;;;;;;;;;;;;;;;5092619;28;19922;-66
2023/03/24 08:08:44;;;;;;;;;;;;;;;;;;5092991;28;19911;-66
2023/03/24 08:11:10;;;;;;;;;;;;;;;;;;5092608;28;20079;-65
2023/03/24 08:13:36;;;;;;;;;;;;;;;;;;5092416;28;19911;-66
2023/03/24 08:16:03;;;;;;;;;;;;;;;;;;5092486;28;19908;-64
2023/03/24 08:18:31;;;;;;;;;;;;;;;;;;5092785;28;19995;-66
2023/03/24 08:20:57;;;;;;;;;;;;;;;;;;5092863;28;19930;-65
2023/03/24 08:23:23;;;;;;;;;;;;;;;;;;5092171;28;19991;-66
2023/03/24 08:25:48;;;;;;;;;;;;;;;;;;5092720;28;19911;-66
2023/03/24 08:28:15;;;;;;;;;;;;;;;;;;5092770;28;19903;-65
2023/03/24 08:30:42;;;;;;;;;;;;;;;;;;5092615;28;19904;-67
2023/03/24 08:33:08;;;;;;;;;;;;;;;;;;5092608;28;19990;-63
2023/03/24 08:35:37;;;;;;;;;;;;;;;;;;5092579;28;19942;-65
2023/03/24 08:38:03;;;;;;;;;;;;;;;;;;5092770;28;19908;-65
2023/03/24 08:40:30;;;;;;;;;;;;;;;;;;5092723;28;20577;-65
2023/03/24 08:42:56;;;;;;;;;;;;;;;;;;5074238;28;19904;-65
2023/03/24 08:45:22;;;;;;;;;;;;;;;;;;5074017;28;20002;-63
2023/03/24 08:47:49;;;;;;;;;;;;;;;;;;5092434;28;19915;-65
2023/03/24 08:50:15;;;;;;;;;;;;;;;;;;5093429;28;19912;-65
2023/03/24 08:52:40;;;;;;;;;;;;;;;;;;5074943;28;19904;-65
2023/03/24 08:55:08;;;;;;;;;;;;;;;;;;5092711;28;20359;-65
2023/03/24 08:57:33;;;;;;;;;;;;;;;;;;5074158;28;20318;-63
2023/03/24 08:59:59;;;;;;;;;;;;;;;;;;5092102;28;19908;-65
2023/03/24 09:02:26;;;;;;;;;;;;;;;;;;5074128;28;19957;-64
2023/03/24 09:04:54;;;;;;;;;;;;;;;;;;5073586;28;19952;-64
2023/03/24 09:07:20;;;;;;;;;;;;;;;;;;5092555;28;19904;-65
2023/03/24 09:09:46;;;;;;;;;;;;;;;;;;5074087;28;20503;-65
2023/03/24 09:12:12;;;;;;;;;;;;;;;;;;5092460;28;19935;-65
2023/03/24 09:14:38;;;;;;;;;;;;;;;;;;5091993;28;19911;-65
2023/03/24 09:17:03;;;;;;;;;;;;;;;;;;5092120;28;19958;-65
2023/03/24 09:19:30;;;;;;;;;;;;;;;;;;5091679;28;20275;-65
2023/03/24 09:21:56;;;;;;;;;;;;;;;;;;5091929;28;20074;-65
2023/03/24 09:24:22;;;;;;;;;;;;;;;;;;5073429;28;20365;-65
2023/03/24 09:26:48;;;;;;;;;;;;;;;;;;5091496;28;19914;-61
2023/03/24 09:29:14;;;;;;;;;;;;;;;;;;5072730;28;20360;-65
2023/03/24 09:31:40;;;;;;;;;;;;;;;;;;5072871;28;19965;-65
2023/03/24 09:34:06;;;;;;;;;;;;;;;;;;5090506;28;20295;-66
2023/03/24 09:36:32;;;;;;;;;;;;;;;;;;5091475;28;19950;-53
2023/03/24 09:38:58;;;;;;;;;;;;;;;;;;5091355;28;19993;-63
2023/03/24 09:41:24;;;;;;;;;;;;;;;;;;5091161;28;19904;-64
2023/03/24 09:43:49;;;;;;;;;;;;;;;;;;5072804;28;19910;-63
2023/03/24 09:46:15;;;;;;;;;;;;;;;;;;5091135;28;20472;-61
2023/03/24 09:48:41;;;;;;;;;;;;;;;;;;5091182;28;19911;-63
2023/03/24 09:51:07;;;;;;;;;;;;;;;;;;5091081;28;19954;-58
2023/03/24 09:53:33;;;;;;;;;;;;;;;;;;5090738;28;19911;-59
2023/03/24 09:55:59;;;;;;;;;;;;;;;;;;5090996;28;19908;-62
2023/03/24 09:58:25;;;;;;;;;;;;;;;;;;5091037;28;19904;-58
2023/03/24 10:00:51;;;;;;;;;;;;;;;;;;5090643;28;19908;-62
2023/03/24 10:03:19;;;;;;;;;;;;;;;;;;5090973;28;19995;-62
2023/03/24 10:05:45;;;;;;;;;;;;;;;;;;5091049;28;19904;-57
2023/03/24 10:08:11;;;;;;;;;;;;;;;;;;5090857;28;19930;-61
2023/03/24 10:10:37;;;;;;;;;;;;;;;;;;5090651;28;20449;-63
2023/03/24 10:13:03;;;;;;;;;;;;;;;;;;5090645;28;19904;-62
2023/03/24 10:15:29;;;;;;;;;;;;;;;;;;5076392;28;20337;-60
2023/03/24 10:17:55;;;;;;;;;;;;;;;;;;5070392;28;19931;-60
2023/03/24 10:20:21;;;;;;;;;;;;;;;;;;5070591;28;19914;-58
2023/03/24 10:22:47;;;;;;;;;;;;;;;;;;5070505;28;20494;-63
2023/03/24 10:25:13;;;;;;;;;;;;;;;;;;5069947;28;19905;-60
2023/03/24 10:27:39;;;;;;;;;;;;;;;;;;5071632;28;19909;-61
2023/03/24 10:30:05;;;;;;;;;;;;;;;;;;5080331;28;20014;-58
2023/03/24 10:32:31;;;;;;;;;;;;;;;;;;5080799;28;19980;-56
2023/03/24 10:34:57;;;;;;;;;;;;;;;;;;5079595;28;20023;-60
2023/03/24 10:37:23;;;;;;;;;;;;;;;;;;5079095;28;19934;-60
2023/03/24 10:39:49;;;;;;;;;;;;;;;;;;5090075;28;19908;-63
2023/03/24 10:42:15;;;;;;;;;;;;;;;;;;5090696;28;19905;-60
2023/03/24 10:44:42;;;;;;;;;;;;;;;;;;5089936;28;19904;-58
2023/03/24 10:47:08;;;;;;;;;;;;;;;;;;5092925;28;20371;-55
2023/03/24 10:49:33;;;;;;;;;;;;;;;;;;5080471;28;19912;-56
2023/03/24 10:52:02;;;;;;;;;;;;;;;;;;5085732;28;19924;-59
2023/03/24 10:54:28;;;;;;;;;;;;;;;;;;5073375;28;19915;-57
2023/03/24 10:56:55;;;;;;;;;;;;;;;;;;5085424;28;19957;-59
2023/03/24 10:59:20;;;;;;;;;;;;;;;;;;5075372;28;19908;-59
2023/03/24 11:01:46;;;;;;;;;;;;;;;;;;5093782;28;19919;-59
2023/03/24 11:04:12;;;;;;;;;;;;;;;;;;5093410;28;20006;-58
2023/03/24 11:06:38;;;;;;;;;;;;;;;;;;5074921;28;19912;-57
2023/03/24 11:09:04;;;;;;;;;;;;;;;;;;5093688;28;19984;-58
2023/03/24 11:11:30;;;;;;;;;;;;;;;;;;5093172;28;19912;-59
2023/03/24 11:13:56;;;;;;;;;;;;;;;;;;5093176;28;20291;-60
2023/03/24 11:16:22;;;;;;;;;;;;;;;;;;5093876;28;20390;-56
2023/03/24 11:18:48;;;;;;;;;;;;;;;;;;5075479;28;19912;-61
2023/03/24 11:21:14;;;;;;;;;;;;;;;;;;5092736;28;19904;-61
2023/03/24 11:23:41;;;;;;;;;;;;;;;;;;5072542;28;19908;-61
2023/03/24 11:26:07;;;;;;;;;;;;;;;;;;5073311;28;19932;-59
2023/03/24 11:28:33;;;;;;;;;;;;;;;;;;5073481;28;20269;-56
2023/03/24 11:30:59;;;;;;;;;;;;;;;;;;5055244;28;19908;-57
2023/03/24 11:33:25;;;;;;;;;;;;;;;;;;5054294;28;19904;-53
2023/03/24 11:35:51;;;;;;;;;;;;;;;;;;5073072;28;20364;-57
2023/03/24 11:38:17;;;;;;;;;;;;;;;;;;5073437;28;19904;-59
2023/03/24 11:40:43;;;;;;;;;;;;;;;;;;5072880;28;19916;-59
2023/03/24 11:43:09;;;;;;;;;;;;;;;;;;5071316;28;20360;-62
2023/03/24 11:45:35;;;;;;;;;;;;;;;;;;5072993;28;20349;-58
2023/03/24 11:48:01;;;;;;;;;;;;;;;;;;5054983;28;20006;-59
2023/03/24 11:50:27;;;;;;;;;;;;;;;;;;5073045;28;20036;-60
2023/03/24 11:52:54;;;;;;;;;;;;;;;;;;5072675;28;20317;-61
2023/03/24 11:55:20;;;;;;;;;;;;;;;;;;5054306;28;19904;-59
2023/03/24 11:57:46;;;;;;;;;;;;;;;;;;5072071;28;19982;-58
2023/03/24 12:00:11;;;;;;;;;;;;;;;;;;5074284;28;19908;-56
2023/03/24 12:02:37;;;;;;;;;;;;;;;;;;5092888;28;20237;-59
2023/03/24 12:05:03;;;;;;;;;;;;;;;;;;5074173;28;19904;-58
2023/03/24 12:07:29;;;;;;;;;;;;;;;;;;5093371;28;20311;-62
2023/03/24 12:09:56;;;;;;;;;;;;;;;;;;5092867;28;19994;-59
2023/03/24 12:12:22;;;;;;;;;;;;;;;;;;5100164;22;20244;-60
2023/03/24 12:14:48;;;;;;;;;;;;;;;;;;5073564;28;19957;-62
2023/03/24 12:17:14;;;;;;;;;;;;;;;;;;5055882;28;19910;-57
2023/03/24 12:19:40;;;;;;;;;;;;;;;;;;5073498;28;19935;-61
2023/03/24 12:22:06;;;;;;;;;;;;;;;;;;5055394;28;19904;-60
2023/03/24 12:24:31;;;;;;;;;;;;;;;;;;5073083;28;19905;-61
2023/03/24 12:26:57;;;;;;;;;;;;;;;;;;5072990;28;19959;-57
2023/03/24 12:29:25;;;;;;;;;;;;;;;;;;5073794;28;20349;-59
2023/03/24 12:31:51;;;;;;;;;;;;;;;;;;5073301;28;19928;-62
2023/03/24 12:34:17;;;;;;;;;;;;;;;;;;5073126;28;20365;-61
2023/03/24 12:36:43;;;;;;;;;;;;;;;;;;5073239;28;20252;-61
2023/03/24 12:39:09;;;;;;;;;;;;;;;;;;5073405;28;19920;-61
2023/03/24 12:41:35;;;;;;;;;;;;;;;;;;5058600;28;20003;-62
2023/03/24 12:44:00;;;;;;;;;;;;;;;;;;5072746;28;20594;-61
2023/03/24 12:46:26;;;;;;;;;;;;;;;;;;5073017;28;19910;-64
2023/03/24 12:48:52;;;;;;;;;;;;;;;;;;5073496;28;19904;-63
2023/03/24 12:51:18;;;;;;;;;;;;;;;;;;5055493;28;19904;-60
2023/03/24 12:53:44;;;;;;;;;;;;;;;;;;4713771;28;10000501;-62
2023/03/24 12:56:10;;;;;;;;;;;;;;;;;;5070671;28;19909;-62
2023/03/24 12:58:36;;;;;;;;;;;;;;;;;;5070285;28;19997;-58
2023/03/24 13:01:02;;;;;;;;;;;;;;;;;;5070276;28;19908;-59
2023/03/24 13:03:28;;;;;;;;;;;;;;;;;;5034147;28;19976;-58
2023/03/24 13:05:54;;;;;;;;;;;;;;;;;;5049988;28;20003;-61
2023/03/24 13:08:21;;;;;;;;;;;;;;;;;;5063494;28;19918;-60
2023/03/24 13:10:49;;;;;;;;;;;;;;;;;;5069480;28;19923;-57
2023/03/24 13:13:14;;;;;;;;;;;;;;;;;;5045898;28;20342;-60
2023/03/24 13:15:40;;;;;;;;;;;;;;;;;;5041749;28;19916;-60
2023/03/24 13:18:06;;;;;;;;;;;;;;;;;;5051718;28;19909;-63
2023/03/24 13:20:32;;;;;;;;;;;;;;;;;;5031880;28;20365;-60
2023/03/24 13:22:58;;;;;;;;;;;;;;;;;;5051684;28;19919;-61
2023/03/24 13:25:24;;;;;;;;;;;;;;;;;;5058148;28;20459;-60
2023/03/24 13:27:50;;;;;;;;;;;;;;;;;;5063981;28;19931;-57
2023/03/24 13:30:16;;;;;;;;;;;;;;;;;;5068929;28;19935;-63
2023/03/24 13:32:42;;;;;;;;;;;;;;;;;;5051295;28;19914;-59
2023/03/24 13:35:08;;;;;;;;;;;;;;;;;;5070103;28;19934;-61
2023/03/24 13:37:34;;;;;;;;;;;;;;;;;;5070624;28;19909;-62
2023/03/24 13:40:00;;;;;;;;;;;;;;;;;;5051286;28;19939;-57
2023/03/24 13:42:26;;;;;;;;;;;;;;;;;;5046771;28;19908;-61
2023/03/24 13:44:52;;;;;;;;;;;;;;;;;;5067109;28;19914;-63
2023/03/24 13:47:18;;;;;;;;;;;;;;;;;;5051488;28;19946;-62
2023/03/24 13:49:44;;;;;;;;;;;;;;;;;;5069702;28;19904;-63
2023/03/24 13:52:10;;;;;;;;;;;;;;;;;;5068804;28;19959;-61
2023/03/24 13:54:36;;;;;;;;;;;;;;;;;;5059595;28;19908;-61
2023/03/24 13:57:02;;;;;;;;;;;;;;;;;;5059376;28;19965;-61
2023/03/24 13:59:28;;;;;;;;;;;;;;;;;;5068800;28;19992;-63
2023/03/24 14:01:54;;;;;;;;;;;;;;;;;;5063328;28;20382;-63
2023/03/24 14:04:20;;;;;;;;;;;;;;;;;;5070029;28;19908;-64
2023/03/24 14:06:46;;;;;;;;;;;;;;;;;;5068592;28;19931;-65
2023/03/24 14:09:12;;;;;;;;;;;;;;;;;;5050505;28;19927;-61
2023/03/24 14:11:40;;;;;;;;;;;;;;;;;;5065165;28;19959;-63
2023/03/24 14:14:06;;;;;;;;;;;;;;;;;;5056887;28;19951;-62
2023/03/24 14:16:32;;;;;;;;;;;;;;;;;;5044504;28;20419;-59
2023/03/24 14:18:58;;;;;;;;;;;;;;;;;;5051042;28;19908;-57
2023/03/24 14:21:24;;;;;;;;;;;;;;;;;;5068484;28;19963;-63
2023/03/24 14:23:54;;;;;;;;;;;;;;;;;;5067720;28;19931;-62
2023/03/24 14:26:20;;;;;;;;;;;;;;;;;;5068469;28;19904;-63
2023/03/24 14:28:49;;;;;;;;;;;;;;;;;;5050546;28;19947;-59
2023/03/24 14:31:15;;;;;;;;;;;;;;;;;;5068456;28;20431;-60
2023/03/24 14:33:41;;;;;;;;;;;;;;;;;;5068199;28;19905;-60
2023/03/24 14:36:10;;;;;;;;;;;;;;;;;;5050866;28;19936;-59
2023/03/24 14:38:36;;;;;;;;;;;;;;;;;;5068855;28;19914;-61
2023/03/24 14:41:02;;;;;;;;;;;;;;;;;;5067821;28;19904;-59
2023/03/24 14:43:28;;;;;;;;;;;;;;;;;;5069113;28;19911;-58
2023/03/24 14:45:54;;;;;;;;;;;;;;;;;;5068934;28;19909;-58
2023/03/24 14:48:20;;;;;;;;;;;;;;;;;;5068222;28;19986;-54
2023/03/24 14:50:46;;;;;;;;;;;;;;;;;;5067831;28;20007;-59
2023/03/24 14:53:12;;;;;;;;;;;;;;;;;;5050911;28;19916;-59
2023/03/24 14:55:38;;;;;;;;;;;;;;;;;;5068175;28;20681;-55
2023/03/24 14:58:05;;;;;;;;;;;;;;;;;;5068373;28;19958;-53
2023/03/24 15:00:31;;;;;;;;;;;;;;;;;;5067378;28;19951;-59
2023/03/24 15:02:57;;;;;;;;;;;;;;;;;;5068678;28;19945;-58
2023/03/24 15:05:24;;;;;;;;;;;;;;;;;;5049860;28;19931;-61
2023/03/24 15:07:50;;;;;;;;;;;;;;;;;;5050799;28;19904;-53
2023/03/24 15:10:15;;;;;;;;;;;;;;;;;;5068968;28;19981;-55
2023/03/24 15:12:41;;;;;;;;;;;;;;;;;;5050409;28;19924;-60
2023/03/24 15:15:07;;;;;;;;;;;;;;;;;;5067908;28;19904;-60
2023/03/24 15:17:33;;;;;;;;;;;;;;;;;;5050254;28;19982;-58
2023/03/24 15:19:59;;;;;;;;;;;;;;;;;;5068380;28;19927;-57
2023/03/24 15:22:25;;;;;;;;;;;;;;;;;;5068114;28;19954;-58
2023/03/24 15:24:51;;;;;;;;;;;;;;;;;;5067848;28;19909;-52
2023/03/24 15:27:18;;;;;;;;;;;;;;;;;;5067933;28;19908;-58
2023/03/24 15:29:44;;;;;;;;;;;;;;;;;;5068167;28;19905;-63
2023/03/24 15:32:10;;;;;;;;;;;;;;;;;;5070427;28;19908;-59
2023/03/24 15:34:38;;;;;;;;;;;;;;;;;;5071149;28;20249;-61
2023/03/24 15:37:04;;;;;;;;;;;;;;;;;;5073448;28;19962;-58
2023/03/24 15:39:30;;;;;;;;;;;;;;;;;;5056888;28;19909;-56
2023/03/24 15:41:55;;;;;;;;;;;;;;;;;;5056003;28;19959;-59
2023/03/24 15:44:21;;;;;;;;;;;;;;;;;;5074114;28;19966;-58
2023/03/24 15:46:47;;;;;;;;;;;;;;;;;;5075065;28;19987;-57
2023/03/24 15:49:13;;;;;;;;;;;;;;;;;;5074666;28;19974;-55
2023/03/24 15:51:39;;;;;;;;;;;;;;;;;;5074284;28;19911;-56
2023/03/24 15:54:05;;;;;;;;;;;;;;;;;;5055757;28;19955;-60
2023/03/24 15:56:32;;;;;;;;;;;;;;;;;;5052673;28;19915;-60
2023/03/24 15:58:58;;;;;;;;;;;;;;;;;;5074304;28;20374;-59
2023/03/24 16:01:26;;;;;;;;;;;;;;;;;;5071090;28;19936;-57
2023/03/24 16:03:52;;;;;;;;;;;;;;;;;;4712632;28;10000494;-62
2023/03/24 16:06:18;;;;;;;;;;;;;;;;;;5071733;28;19911;-60
2023/03/24 16:08:44;;;;;;;;;;;;;;;;;;5054191;28;19904;-58
2023/03/24 16:11:10;;;;;;;;;;;;;;;;;;5074497;28;19993;-59
2023/03/24 16:13:36;;;;;;;;;;;;;;;;;;5072091;28;20607;-58
2023/03/24 16:16:02;;;;;;;;;;;;;;;;;;5053476;28;19988;-58
2023/03/24 16:18:30;;;;;;;;;;;;;;;;;;5071747;28;20380;-60
2023/03/24 16:20:56;;;;;;;;;;;;;;;;;;5071027;28;19908;-60
2023/03/24 16:23:22;;;;;;;;;;;;;;;;;;5070226;28;19961;-62
2023/03/24 16:25:48;;;;;;;;;;;;;;;;;;5053029;28;19959;-60
2023/03/24 16:28:14;;;;;;;;;;;;;;;;;;5070920;28;19908;-58
2023/03/24 16:30:40;;;;;;;;;;;;;;;;;;5053368;28;19915;-59
2023/03/24 16:33:06;;;;;;;;;;;;;;;;;;5071277;28;20567;-62
2023/03/24 16:35:32;;;;;;;;;;;;;;;;;;5072896;28;19988;-58
2023/03/24 16:37:58;;;;;;;;;;;;;;;;;;5070435;28;20095;-57